Airfield :
LOGIN :

Register | Disclaimer

   EN    FR    IT 

 










Legend :    VFR   Marginal VFR   IFR   Intensive IFR   Very Intensive IFR
Visi :
Ceiling :
>= 8 km
>= 3000ft
5 to 8 km
1000 to 3000 ft
1500m to 5 km
500 to 1000 ft
800 to 1500m
200 to 500 ft
< 800m
< 200 ft
Symbols :   Thunderstorms  Fog  Heavy snow  Heavy precipitations  Wind > 20 kt
SIGMETs :     Misc.  Thunderstorms  Icing  Turbulence  Mountain Waves  Volcanic Ashes






- Airport Elevation : 138 ft
- IATA code : RLG


ETNL - Rostock Laage

CURRENT METAR :
  • 200320Z 34005KT 9999 SCT030 02/01 Q1010 BLU+

EXPIRED METARs :
  • 200220Z 01008KT 9999 FEW018 BKN070 03/01 Q1010 BLU
  • 200120Z 01009KT 9999 SCT017 BKN080 04/02 Q1008 BLU
  • 200020Z 02009KT 9999 BKN017 BKN060 04/02 Q1008 WHT
  • 192320Z 02014KT 9999 FEW009 BKN018 05/03 Q1007 WHT

TAF TAF ETNL
Valid from the 19 at 23:00 until the 20 at 11:00 UTC


192220Z 1923/2011 02008KT 9999 NSW FEW012 BKN020
TEMPO 1923/2011 01012KT 4000 -RA BKN006



MET'MAP, your aeronautical weather chart ! - Copyright ORBIFLY December 2007 - Disclaimer

ORBIFLY MET'MAP TEAM :

Programming & Development : Alexandra Zaïnal
Original concept : Baudouin d'Aumeries
Technical & hardware support : Manuel Goepfert
Assistance : Marc-Olivier Méhu




SOURCES & CREDITS :

   NOAA